Time;durP1;ratioP1;P1;durP2;ratioP2;P2;SDS_P1;SDS_P2;PMS_P1;PMS_P2;Temp;Humidity;BMP_temperature;BMP_pressure;BME280_temperature;BME280_humidity;BME280_pressure;Samples;Min_cycle;Max_cycle;Signal;HPM_P1;HPM_P2
2023/03/17 00:01:16;;;;;;;4.47;3.20;;;;;;;6.92;63.77;101719.47;5031259;28;20710;-79
2023/03/17 00:03:45;;;;;;;3.70;3.00;;;;;;;6.92;63.89;101724.72;5017643;28;20725;-79
2023/03/17 00:06:16;;;;;;;4.22;3.20;;;;;;;6.89;63.78;101717.88;5018033;28;20404;-79
2023/03/17 00:08:44;;;;;;;3.92;3.13;;;;;;;7.03;63.55;101715.97;5017637;28;20439;-79
2023/03/17 00:11:15;;;;;;;4.50;3.30;;;;;;;6.97;63.61;101733.13;5016864;28;20853;-78
2023/03/17 00:13:42;;;;;;;4.20;3.00;;;;;;;6.91;64.02;101722.22;5016961;28;20481;-79
2023/03/17 00:16:17;;;;;;;4.28;3.30;;;;;;;7.02;63.41;101733.59;5016146;28;20880;-78
2023/03/17 00:18:43;;;;;;;5.38;3.78;;;;;;;6.95;63.45;101721.00;5016897;28;20399;-79
2023/03/17 00:21:14;;;;;;;4.68;3.55;;;;;;;7.10;63.11;101730.34;5016677;28;20396;-78
2023/03/17 00:23:40;;;;;;;6.28;3.90;;;;;;;6.91;63.70;101733.59;5016809;28;20396;-78
2023/03/17 00:26:05;;;;;;;4.95;3.65;;;;;;;6.83;64.08;101721.03;5015490;28;20408;-79
2023/03/17 00:28:31;;;;;;;4.72;3.50;;;;;;;7.00;63.44;101724.13;5018671;28;20600;-77
2023/03/17 00:31:05;;;;;;;4.40;3.20;;;;;;;6.92;63.86;101740.56;5022893;28;20920;-78
2023/03/17 00:33:33;;;;;;;6.53;3.83;;;;;;;6.89;64.09;101735.50;5021687;28;20395;-77
2023/03/17 00:36:00;;;;;;;6.28;3.80;;;;;;;7.06;63.22;101729.75;5019084;28;20420;-78
2023/03/17 00:38:26;;;;;;;6.30;3.97;;;;;;;7.16;62.98;101724.56;5018917;28;20415;-78
2023/03/17 00:40:53;;;;;;;5.63;4.13;;;;;;;7.24;63.12;101740.63;5015185;28;20391;-79
2023/03/17 00:43:18;;;;;;;5.53;4.50;;;;;;;7.24;63.03;101738.00;5016429;28;20396;-79
2023/03/17 00:45:45;;;;;;;5.85;4.07;;;;;;;7.24;62.82;101731.88;5016356;28;20406;-79
2023/03/17 00:48:17;;;;;;;5.93;4.20;;;;;;;7.05;63.55;101732.50;5014813;28;20424;-79
2023/03/17 00:50:43;;;;;;;4.93;4.10;;;;;;;6.94;63.69;101736.00;5015832;28;20501;-79
2023/03/17 00:53:12;;;;;;;4.87;3.97;;;;;;;6.99;63.84;101728.56;5016166;28;20393;-79
2023/03/17 00:55:39;;;;;;;6.03;4.55;;;;;;;6.95;63.70;101742.94;5015294;28;20388;-79
2023/03/17 00:58:25;;;;;;;5.43;4.03;;;;;;;6.79;63.68;101734.53;5015211;28;20384;-78
2023/03/17 01:00:52;;;;;;;6.00;3.90;;;;;;;6.88;63.45;101734.69;5014706;28;20392;-79
2023/03/17 01:03:18;;;;;;;6.07;3.85;;;;;;;6.91;62.97;101732.75;5015366;28;20392;-78
2023/03/17 01:05:45;;;;;;;5.73;4.10;;;;;;;6.98;62.82;101737.41;5013883;28;20465;-77
2023/03/17 01:08:11;;;;;;;4.60;3.85;;;;;;;6.87;63.14;101733.00;5013369;28;20415;-77
2023/03/17 01:10:37;;;;;;;4.93;4.18;;;;;;;6.93;63.18;101741.38;5012066;28;20446;-77
2023/03/17 01:13:04;;;;;;;4.68;4.18;;;;;;;7.02;62.91;101744.16;5012746;28;20420;-78
2023/03/17 01:15:31;;;;;;;4.95;4.28;;;;;;;6.96;62.66;101741.97;5014090;28;20392;-78
2023/03/17 01:17:59;;;;;;;5.22;4.00;;;;;;;6.99;62.75;101759.38;5012533;28;20479;-78
2023/03/17 01:20:33;;;;;;;3.95;3.40;;;;;;;6.76;62.58;101751.44;5014081;28;20407;-77
2023/03/17 01:22:59;;;;;;;3.75;3.20;;;;;;;6.69;62.81;101760.78;5013643;28;20392;-78
2023/03/17 01:25:26;;;;;;;3.60;2.90;;;;;;;6.79;62.42;101767.03;5014374;28;20400;-78
2023/03/17 01:27:54;;;;;;;2.35;2.15;;;;;;;6.74;62.09;101757.81;5014800;28;20501;-77
2023/03/17 01:30:19;;;;;;;2.35;2.10;;;;;;;6.74;61.49;101761.28;5012839;28;20403;-78
2023/03/17 01:32:45;;;;;;;2.40;2.17;;;;;;;6.81;61.32;101769.53;5012900;28;20416;-78
2023/03/17 01:35:12;;;;;;;2.70;2.40;;;;;;;6.91;61.17;101767.84;5013727;28;20453;-78
2023/03/17 01:37:38;;;;;;;3.42;2.55;;;;;;;7.00;60.74;101779.47;5013818;28;20392;-77
2023/03/17 01:40:12;;;;;;;3.13;2.60;;;;;;;6.91;60.93;101778.41;5013279;28;20388;-77
2023/03/17 01:42:38;;;;;;;3.97;3.10;;;;;;;7.04;60.59;101778.28;5013016;28;20396;-78
2023/03/17 01:45:46;;;;;;;4.10;3.10;;;;;;;7.05;60.63;101779.97;5012935;28;20391;-78
2023/03/17 01:48:12;;;;;;;4.75;3.40;;;;;;;6.93;61.36;101786.19;5012834;28;20419;-77
2023/03/17 01:50:38;;;;;;;4.38;3.20;;;;;;;6.96;61.18;101783.31;5012688;28;20499;-77
2023/03/17 01:53:03;;;;;;;3.80;3.20;;;;;;;6.99;60.79;101786.56;5011963;28;20424;-78
2023/03/17 01:55:29;;;;;;;3.53;3.00;;;;;;;7.01;60.64;101781.16;5012163;28;20430;-78
2023/03/17 01:57:55;;;;;;;3.70;3.08;;;;;;;6.93;60.71;101794.09;5011734;28;20388;-78
2023/03/17 02:00:23;;;;;;;4.82;3.05;;;;;;;6.80;61.40;101791.56;5012440;28;20395;-78
2023/03/17 02:02:55;;;;;;;4.97;3.30;;;;;;;6.89;61.40;101798.75;5012960;28;20806;-77
2023/03/17 02:05:30;;;;;;;3.38;3.08;;;;;;;6.76;61.38;101805.97;5012559;28;20395;-78
2023/03/17 02:07:57;;;;;;;3.53;3.00;;;;;;;6.74;61.65;101811.34;5009899;28;20416;-78
2023/03/17 02:10:27;;;;;;;3.53;2.88;;;;;;;6.62;61.94;101805.19;5013305;28;20388;-78
2023/03/17 02:12:57;;;;;;;3.65;2.50;;;;;;;6.50;61.89;101812.25;5013235;28;20430;-78
2023/03/17 02:15:22;;;;;;;3.15;2.50;;;;;;;6.51;62.13;101808.66;5013093;28;20388;-78
2023/03/17 02:17:48;;;;;;;2.70;2.30;;;;;;;6.46;62.12;101805.56;5011503;28;20394;-79
2023/03/17 02:20:17;;;;;;;2.80;2.50;;;;;;;6.41;62.02;101812.09;5012376;28;20388;-77
2023/03/17 02:22:51;;;;;;;3.47;2.80;;;;;;;6.38;62.21;101809.72;5012112;28;20391;-78
2023/03/17 02:25:19;;;;;;;2.93;2.53;;;;;;;6.38;61.98;101810.53;5012282;28;20384;-77
2023/03/17 02:27:49;;;;;;;2.85;2.50;;;;;;;6.44;62.19;101811.88;5012443;28;20519;-78
2023/03/17 02:30:21;;;;;;;3.08;2.45;;;;;;;6.48;61.91;101805.41;5012077;28;20935;-77
2023/03/17 02:32:47;;;;;;;2.60;2.40;;;;;;;6.44;62.15;101809.25;5011727;28;20912;-77
2023/03/17 02:35:12;;;;;;;3.03;2.57;;;;;;;6.43;62.17;101818.13;5012009;28;20483;-77
2023/03/17 02:37:38;;;;;;;2.83;2.53;;;;;;;6.59;61.62;101816.00;5011801;28;20418;-78
2023/03/17 02:40:05;;;;;;;2.67;2.40;;;;;;;6.53;61.84;101829.63;5011920;28;20454;-77
2023/03/17 02:42:33;;;;;;;3.05;2.50;;;;;;;6.50;62.22;101833.34;5012273;28;20395;-77
2023/03/17 02:44:59;;;;;;;3.13;2.53;;;;;;;6.48;61.91;101821.22;5010882;28;20942;-77
2023/03/17 02:47:26;;;;;;;3.85;2.78;;;;;;;6.63;62.03;101829.78;5011662;28;20380;-77
2023/03/17 02:49:52;;;;;;;4.00;2.90;;;;;;;6.66;61.41;101827.75;5010825;28;20388;-77
2023/03/17 02:52:18;;;;;;;5.80;2.90;;;;;;;6.70;61.56;101825.72;5010612;28;20756;-77
2023/03/17 02:54:44;;;;;;;2.90;2.47;;;;;;;6.79;61.41;101832.91;5011133;28;20899;-77
2023/03/17 02:57:09;;;;;;;3.43;2.83;;;;;;;6.75;61.69;101831.44;5010456;28;20380;-78
2023/03/17 02:59:35;;;;;;;3.13;2.60;;;;;;;6.76;61.75;101830.50;5011553;28;20394;-77
2023/03/17 03:02:01;;;;;;;3.10;2.40;;;;;;;6.72;62.00;101833.47;5011518;28;20430;-77
2023/03/17 03:04:27;;;;;;;3.55;2.80;;;;;;;6.74;61.86;101831.59;5013868;28;20403;-78
2023/03/17 03:06:52;;;;;;;3.77;2.60;;;;;;;6.79;61.59;101826.78;5015119;28;20408;-77
2023/03/17 03:09:19;;;;;;;3.50;2.90;;;;;;;6.73;61.64;101836.00;5014891;28;20407;-77
2023/03/17 03:11:45;;;;;;;3.25;2.80;;;;;;;6.70;62.13;101830.97;5014298;28;20396;-78
2023/03/17 03:14:11;;;;;;;3.38;2.80;;;;;;;6.74;61.72;101840.31;5014740;28;20383;-78
2023/03/17 03:16:37;;;;;;;3.00;2.70;;;;;;;6.77;61.80;101831.34;5015232;28;20396;-78
2023/03/17 03:19:02;;;;;;;2.97;2.63;;;;;;;6.85;61.43;101839.50;5014913;28;20526;-78
2023/03/17 03:21:28;;;;;;;2.63;2.43;;;;;;;6.82;61.80;101845.00;5014561;28;20438;-78
2023/03/17 03:23:54;;;;;;;2.97;2.60;;;;;;;6.68;62.24;101840.78;5014667;28;20396;-78
2023/03/17 03:26:20;;;;;;;3.07;2.63;;;;;;;6.79;62.07;101842.59;5013425;28;20525;-77
2023/03/17 03:28:45;;;;;;;3.90;2.80;;;;;;;6.78;61.84;101843.56;5015697;28;20416;-77
2023/03/17 03:31:12;;;;;;;3.03;2.67;;;;;;;6.72;61.82;101851.91;5014574;28;20914;-78
2023/03/17 03:33:39;;;;;;;3.30;2.95;;;;;;;6.67;61.95;101847.03;5015071;28;20400;-79
2023/03/17 03:36:05;;;;;;;3.22;2.70;;;;;;;6.69;61.98;101848.56;5014709;28;20450;-77
2023/03/17 03:38:30;;;;;;;6.07;2.83;;;;;;;6.53;62.56;101853.31;5014679;28;20395;-77
2023/03/17 03:40:56;;;;;;;4.17;2.63;;;;;;;6.53;62.67;101857.75;5015512;28;20388;-77
2023/03/17 03:43:21;;;;;;;3.60;2.83;;;;;;;6.56;62.44;101860.16;5015816;28;20388;-78
2023/03/17 03:45:47;;;;;;;3.63;3.25;;;;;;;6.50;62.51;101864.13;5016490;28;20387;-78
2023/03/17 03:48:12;;;;;;;4.50;3.10;;;;;;;6.53;62.63;101860.41;5015694;28;20808;-78
2023/03/17 03:50:38;;;;;;;3.63;3.10;;;;;;;6.66;62.12;101859.38;5016264;28;20388;-79
2023/03/17 03:53:03;;;;;;;4.35;3.20;;;;;;;6.68;62.28;101864.50;5017130;28;20395;-79
2023/03/17 03:55:29;;;;;;;4.20;2.87;;;;;;;6.76;62.00;101861.28;5016105;28;20384;-78
2023/03/17 03:57:55;;;;;;;2.80;2.50;;;;;;;6.94;61.34;101865.16;5014878;28;20380;-79
2023/03/17 04:00:20;;;;;;;3.00;2.50;;;;;;;6.89;61.26;101876.03;5031975;28;20440;-79
2023/03/17 04:02:46;;;;;;;3.60;2.80;;;;;;;6.92;61.17;101868.88;5037336;28;20406;-78
2023/03/17 04:05:14;;;;;;;7.57;5.18;;;;;;;6.93;61.46;101863.47;5027563;28;20390;-79
2023/03/17 04:07:40;;;;;;;4.78;3.45;;;;;;;7.08;61.09;101880.75;5011205;28;20835;-79
2023/03/17 04:10:07;;;;;;;4.10;2.90;;;;;;;7.11;60.76;101882.28;5015436;28;20394;-79
2023/03/17 04:12:33;;;;;;;4.05;3.65;;;;;;;7.10;60.89;101882.44;5015019;28;20407;-80
2023/03/17 04:14:59;;;;;;;7.63;6.82;;;;;;;7.10;60.71;101882.44;5017005;28;20414;-79
2023/03/17 04:17:25;;;;;;;6.00;4.43;;;;;;;7.15;60.50;101881.13;5017486;28;20419;-79
2023/03/17 04:19:51;;;;;;;6.17;4.40;;;;;;;7.14;60.44;101889.97;5016810;28;21022;-79
2023/03/17 04:22:17;;;;;;;4.53;3.90;;;;;;;7.11;60.49;101890.22;5015527;28;20392;-79
2023/03/17 04:24:42;;;;;;;5.25;3.55;;;;;;;7.13;60.46;101890.09;5017374;28;20395;-79
2023/03/17 04:27:08;;;;;;;3.50;3.20;;;;;;;7.06;60.86;101895.84;5016389;28;20871;-78
2023/03/17 04:29:34;;;;;;;4.60;3.78;;;;;;;7.14;60.51;101908.44;5015265;28;20485;-79
2023/03/17 04:32:02;;;;;;;5.22;4.05;;;;;;;7.21;60.42;101904.38;5030833;28;20454;-79
2023/03/17 04:34:27;;;;;;;6.03;4.60;;;;;;;7.30;60.10;101912.53;5015632;28;20395;-78
2023/03/17 04:36:53;;;;;;;4.33;3.63;;;;;;;7.27;60.19;101914.47;5015044;28;20396;-79
2023/03/17 04:39:19;;;;;;;6.40;5.47;;;;;;;7.23;60.36;101907.72;5005789;28;20388;-79
2023/03/17 04:41:45;;;;;;;6.55;4.80;;;;;;;7.25;60.20;101911.06;5014803;28;20450;-79
2023/03/17 04:44:11;;;;;;;5.80;5.20;;;;;;;7.30;60.08;101921.28;5014143;28;20403;-79
2023/03/17 04:46:37;;;;;;;6.13;4.72;;;;;;;7.28;60.32;101920.56;5014118;28;20462;-79
2023/03/17 04:49:03;;;;;;;4.90;4.40;;;;;;;7.36;60.08;101920.78;5012961;28;20865;-79
2023/03/17 04:51:29;;;;;;;5.28;4.43;;;;;;;7.49;59.46;101930.41;5015676;28;20845;-80
2023/03/17 04:53:54;;;;;;;5.53;4.50;;;;;;;7.57;59.55;101933.28;5014284;28;20380;-79
2023/03/17 04:56:20;;;;;;;7.90;7.10;;;;;;;7.63;59.31;101935.44;5013735;28;20384;-79
2023/03/17 04:58:46;;;;;;;22.73;20.92;;;;;;;7.70;59.27;101941.91;5013222;28;20384;-80
2023/03/17 05:01:11;;;;;;;23.23;21.40;;;;;;;7.70;59.04;101939.28;5012808;28;20447;-77
2023/03/17 05:03:37;;;;;;;8.13;7.30;;;;;;;7.66;59.05;101932.56;5013644;28;20384;-77
2023/03/17 05:06:03;;;;;;;5.53;4.90;;;;;;;7.60;59.52;101939.16;5013143;28;20475;-78
2023/03/17 05:08:30;;;;;;;6.80;5.03;;;;;;;7.65;59.35;101949.34;5013059;28;20412;-78
2023/03/17 05:10:56;;;;;;;51.45;47.80;;;;;;;7.57;59.59;101943.84;5008835;28;20414;-78
2023/03/17 05:13:22;;;;;;;17.02;15.73;;;;;;;7.54;59.91;101954.63;5003982;28;20408;-78
2023/03/17 05:15:50;;;;;;;7.50;6.85;;;;;;;7.47;59.74;101952.47;5013323;28;20392;-79
2023/03/17 05:18:19;;;;;;;7.80;6.78;;;;;;;7.54;59.84;101959.91;5012596;28;20418;-78
2023/03/17 05:20:45;;;;;;;5.55;5.05;;;;;;;7.54;59.34;101955.47;5014300;28;20443;-78
2023/03/17 05:23:11;;;;;;;4.38;3.97;;;;;;;7.54;59.69;101960.75;5012968;28;20396;-79
2023/03/17 05:25:36;;;;;;;20.63;19.03;;;;;;;7.50;59.80;101953.19;5012289;28;20721;-77
2023/03/17 05:28:02;;;;;;;9.63;8.90;;;;;;;7.54;59.83;101966.00;5013363;28;20418;-79
2023/03/17 05:30:28;;;;;;;15.90;14.75;;;;;;;7.59;59.81;101968.31;5011623;28;20461;-80
2023/03/17 05:32:53;;;;;;;6.43;5.82;;;;;;;7.50;59.98;101969.88;5012922;28;20392;-78
2023/03/17 05:35:19;;;;;;;5.50;5.00;;;;;;;7.56;59.77;101971.19;5013159;28;20448;-79
2023/03/17 05:37:45;;;;;;;26.17;24.35;;;;;;;7.58;59.87;101967.47;5012373;28;20395;-78
2023/03/17 05:40:13;;;;;;;4.40;3.90;;;;;;;7.60;59.72;101964.72;5012611;28;20943;-78
2023/03/17 05:42:40;;;;;;;3.35;3.05;;;;;;;7.59;59.80;101973.59;5011986;28;20718;-78
2023/03/17 05:45:06;;;;;;;3.55;3.00;;;;;;;7.54;59.90;101978.38;5012827;28;20384;-81
2023/03/17 05:47:32;;;;;;;4.47;2.92;;;;;;;7.54;59.84;101973.09;5011296;28;20403;-79
2023/03/17 05:49:59;;;;;;;4.28;3.15;;;;;;;7.53;59.75;101972.28;5011676;28;20415;-78
2023/03/17 05:52:24;;;;;;;4.75;3.00;;;;;;;7.54;59.91;101981.00;5013227;28;20396;-78
2023/03/17 05:54:50;;;;;;;4.00;3.23;;;;;;;7.58;59.73;101977.16;5011706;28;20440;-77
2023/03/17 05:57:16;;;;;;;3.93;3.20;;;;;;;7.58;60.19;101980.69;5010760;28;20453;-79
2023/03/17 05:59:41;;;;;;;4.80;3.97;;;;;;;7.61;60.08;101987.50;5011381;28;20384;-80
2023/03/17 06:02:07;;;;;;;6.45;4.13;;;;;;;7.65;59.76;101988.94;5012041;28;20406;-78
2023/03/17 06:04:33;;;;;;;4.10;3.55;;;;;;;7.69;59.62;101998.31;5012839;28;20380;-80
2023/03/17 06:06:58;;;;;;;4.90;3.70;;;;;;;7.63;60.04;102001.41;5011854;28;21468;-78
2023/03/17 06:09:24;;;;;;;5.13;3.75;;;;;;;7.64;60.04;102006.56;5010629;28;20871;-78
2023/03/17 06:11:50;;;;;;;4.70;4.10;;;;;;;7.66;60.20;102003.81;5015278;28;20712;-78
2023/03/17 06:14:15;;;;;;;4.30;3.90;;;;;;;7.71;60.25;102000.84;5031281;28;20401;-80
2023/03/17 06:16:41;;;;;;;4.27;3.23;;;;;;;7.81;59.93;102009.69;5029705;28;20554;-81
2023/03/17 06:19:06;;;;;;;25.73;11.07;;;;;;;7.90;59.55;102003.69;5021612;28;20375;-80
2023/03/17 06:21:32;;;;;;;90.03;37.27;;;;;;;8.01;59.58;102016.03;5033339;28;20417;-79
2023/03/17 06:23:57;;;;;;;10.50;7.90;;;;;;;7.75;59.94;102026.03;5032682;28;20456;-79
2023/03/17 06:26:23;;;;;;;8.63;7.13;;;;;;;7.53;60.77;102027.69;5019425;28;20384;-78
2023/03/17 06:28:48;;;;;;;16.53;10.97;;;;;;;7.56;60.50;102038.00;5032020;28;20434;-78
2023/03/17 06:31:14;;;;;;;14.90;11.40;;;;;;;7.56;60.61;102030.09;5019124;28;20475;-78
2023/03/17 06:33:40;;;;;;;12.95;9.95;;;;;;;7.38;60.92;102029.69;5031125;28;20470;-78
2023/03/17 06:36:06;;;;;;;11.05;9.23;;;;;;;7.39;61.00;102034.00;5017611;28;20718;-78
2023/03/17 06:38:32;;;;;;;12.38;9.73;;;;;;;7.38;60.96;102037.63;5016457;28;20376;-80
2023/03/17 06:40:58;;;;;;;32.10;22.95;;;;;;;7.37;60.78;102033.28;5018438;28;20407;-77
2023/03/17 06:43:23;;;;;;;16.15;11.32;;;;;;;7.55;60.47;102031.03;5027347;28;20379;-77
2023/03/17 06:45:49;;;;;;;227.43;128.40;;;;;;;7.56;60.58;102040.66;5030234;28;20424;-80
2023/03/17 06:48:14;;;;;;;15.20;12.13;;;;;;;7.47;60.93;102039.56;5018738;28;20403;-79
2023/03/17 06:50:40;;;;;;;36.40;29.97;;;;;;;7.45;61.25;102033.56;4968389;28;20439;-78
2023/03/17 06:53:06;;;;;;;8.20;6.75;;;;;;;7.46;61.14;102032.56;5018803;28;20406;-79
2023/03/17 06:55:32;;;;;;;20.60;16.95;;;;;;;7.50;60.82;102037.63;5047724;28;20396;-79
2023/03/17 06:57:59;;;;;;;7.20;6.50;;;;;;;7.45;60.96;102040.59;5035720;28;20383;-79
2023/03/17 07:00:26;;;;;;;8.55;6.93;;;;;;;7.46;61.06;102035.22;5035702;28;20378;-80
2023/03/17 07:02:51;;;;;;;13.50;12.10;;;;;;;7.45;60.89;102027.41;5036094;28;20395;-79
2023/03/17 07:05:17;;;;;;;10.30;9.20;;;;;;;7.51;61.12;102034.00;5036630;28;20378;-80
2023/03/17 07:07:43;;;;;;;8.20;7.13;;;;;;;7.40;60.57;102035.69;5028583;28;20721;-79
2023/03/17 07:10:09;;;;;;;14.90;13.05;;;;;;;7.31;61.42;102036.41;5018568;28;20384;-79
2023/03/17 07:12:35;;;;;;;23.63;19.80;;;;;;;7.46;60.95;102026.47;5035759;28;20405;-78
2023/03/17 07:15:02;;;;;;;10.57;9.15;;;;;;;7.68;60.75;102023.00;5036016;28;20378;-79
2023/03/17 07:17:46;;;;;;;19.67;17.67;;;;;;;7.80;60.43;102026.50;5036662;28;20477;-79
2023/03/17 07:20:12;;;;;;;7.80;6.83;;;;;;;7.75;60.30;102028.66;5034150;28;20405;-80
2023/03/17 07:22:38;;;;;;;8.77;7.53;;;;;;;7.89;60.44;102038.16;5016047;28;20415;-78
2023/03/17 07:25:06;;;;;;;8.10;7.20;;;;;;;8.05;60.39;102025.44;5029157;28;20399;-80
2023/03/17 07:27:32;;;;;;;9.48;7.78;;;;;;;8.06;59.87;102028.91;5014805;28;20686;-78
2023/03/17 07:30:01;;;;;;;8.82;7.15;;;;;;;7.96;60.09;102029.63;5005564;28;20409;-79
2023/03/17 07:32:26;;;;;;;7.63;6.68;;;;;;;8.00;59.94;102020.50;5035338;28;20394;-80
2023/03/17 07:34:52;;;;;;;8.88;7.00;;;;;;;8.10;60.01;102027.69;5048164;28;20718;-79
2023/03/17 07:37:18;;;;;;;7.33;6.17;;;;;;;8.21;59.42;102030.31;5016583;28;20875;-77
2023/03/17 07:39:46;;;;;;;7.23;6.30;;;;;;;8.08;59.90;102024.34;5023178;28;20469;-79
2023/03/17 07:42:14;;;;;;;9.10;6.70;;;;;;;8.31;59.53;102025.97;5020622;28;20434;-81
2023/03/17 07:44:40;;;;;;;8.00;7.20;;;;;;;8.47;59.62;102030.09;5033861;28;20383;-80
2023/03/17 07:47:08;;;;;;;12.00;8.00;;;;;;;8.54;59.39;102036.56;5026530;28;20397;-78
2023/03/17 07:49:33;;;;;;;9.85;7.30;;;;;;;8.47;59.40;102032.72;5032371;28;20396;-80
2023/03/17 07:51:59;;;;;;;8.45;6.88;;;;;;;8.38;59.37;102044.84;5037808;28;20439;-80
2023/03/17 07:54:26;;;;;;;9.85;7.10;;;;;;;8.42;59.10;102047.13;5038808;28;20384;-81
2023/03/17 07:56:52;;;;;;;8.35;6.70;;;;;;;8.41;59.51;102050.72;5033979;28;20404;-81
2023/03/17 07:59:18;;;;;;;7.07;5.90;;;;;;;8.27;59.02;102056.25;5020101;28;20465;-81
2023/03/17 08:01:43;;;;;;;7.13;5.70;;;;;;;7.98;59.66;102059.41;5018019;28;20753;-81
2023/03/17 08:04:11;;;;;;;7.47;6.68;;;;;;;8.11;60.04;102061.91;5015951;28;20377;-81
2023/03/17 08:06:37;;;;;;;5.93;5.00;;;;;;;8.04;59.59;102063.34;5016855;28;20543;-80
2023/03/17 08:09:03;;;;;;;6.97;5.45;;;;;;;8.03;59.59;102073.09;5014231;28;20475;-80
2023/03/17 08:11:28;;;;;;;6.38;5.78;;;;;;;8.07;59.52;102068.41;5015968;28;20416;-80
2023/03/17 08:13:54;;;;;;;5.75;5.05;;;;;;;8.23;59.15;102078.59;5014969;28;20408;-78
2023/03/17 08:16:19;;;;;;;5.20;4.70;;;;;;;8.32;58.74;102080.53;5015785;28;20391;-79
2023/03/17 08:18:45;;;;;;;5.07;4.57;;;;;;;8.15;58.79;102081.00;5015566;28;20388;-79
2023/03/17 08:21:11;;;;;;;5.38;4.22;;;;;;;8.04;58.66;102087.94;5016598;28;20380;-81
2023/03/17 08:23:36;;;;;;;5.78;5.18;;;;;;;7.96;59.09;102084.22;5017284;28;20771;-81
2023/03/17 08:26:03;;;;;;;5.97;5.00;;;;;;;8.10;58.95;102077.88;5017115;28;20742;-81
2023/03/17 08:28:29;;;;;;;5.10;4.20;;;;;;;8.06;59.04;102085.19;5016699;28;20404;-80
2023/03/17 08:31:07;;;;;;;10.35;7.57;;;;;;;8.30;58.78;102090.38;5015680;28;20881;-79
2023/03/17 08:33:33;;;;;;;8.25;6.00;;;;;;;8.38;58.27;102081.81;5016837;28;20415;-80
2023/03/17 08:36:03;;;;;;;6.70;5.57;;;;;;;8.40;58.38;102079.91;5016908;28;20703;-79
2023/03/17 08:38:29;;;;;;;5.43;4.40;;;;;;;8.51;58.64;102087.00;5015727;28;20384;-79
2023/03/17 08:40:59;;;;;;;6.50;5.00;;;;;;;8.59;58.09;102088.06;5024527;28;20811;-80
2023/03/17 08:43:25;;;;;;;6.45;5.43;;;;;;;8.61;58.27;102095.88;5032327;28;20383;-80
2023/03/17 08:45:50;;;;;;;5.93;4.80;;;;;;;8.57;58.72;102086.50;5035365;28;20391;-79
2023/03/17 08:48:16;;;;;;;5.97;5.00;;;;;;;8.75;58.25;102086.81;5036490;28;20416;-80
2023/03/17 08:50:41;;;;;;;5.50;5.00;;;;;;;8.79;57.31;102091.75;5031650;28;20399;-78
2023/03/17 08:53:07;;;;;;;5.85;4.70;;;;;;;8.91;57.64;102084.63;5024252;28;20384;-79
2023/03/17 08:55:34;;;;;;;6.22;5.18;;;;;;;8.97;57.37;102081.47;5024087;28;20380;-81
2023/03/17 08:58:00;;;;;;;6.17;5.47;;;;;;;9.04;57.19;102087.13;5022646;28;20425;-80
2023/03/17 09:00:25;;;;;;;7.30;5.15;;;;;;;9.08;57.28;102096.47;5021541;28;20399;-79
2023/03/17 09:02:51;;;;;;;11.70;5.82;;;;;;;9.21;57.48;102090.16;5018861;28;20462;-80
2023/03/17 09:05:16;;;;;;;5.70;4.80;;;;;;;9.23;57.08;102081.13;5018503;28;20399;-81
2023/03/17 09:07:42;;;;;;;7.27;5.07;;;;;;;9.25;56.59;102083.66;5014381;28;20391;-81
2023/03/17 09:10:10;;;;;;;5.85;5.10;;;;;;;9.25;56.48;102081.84;5014386;28;20380;-79
2023/03/17 09:12:36;;;;;;;6.70;4.88;;;;;;;9.32;56.65;102093.59;5013509;28;20499;-81
2023/03/17 09:15:03;;;;;;;6.10;4.65;;;;;;;9.40;56.83;102092.97;5015543;28;20391;-80
2023/03/17 09:17:28;;;;;;;5.20;4.40;;;;;;;9.41;55.83;102093.81;5016187;28;20505;-82
2023/03/17 09:19:53;;;;;;;5.35;4.40;;;;;;;9.39;55.87;102091.28;5014138;28;20765;-80
2023/03/17 09:22:19;;;;;;;7.73;5.53;;;;;;;9.37;55.99;102096.69;5013268;28;20380;-81
2023/03/17 09:24:45;;;;;;;6.63;5.32;;;;;;;9.31;55.88;102097.22;5015695;28;20380;-80
2023/03/17 09:27:11;;;;;;;6.30;5.03;;;;;;;9.31;55.94;102101.66;5014168;28;20391;-82
2023/03/17 09:29:37;;;;;;;7.93;4.80;;;;;;;9.22;55.63;102095.34;5013458;28;20481;-82
2023/03/17 09:32:03;;;;;;;8.30;5.70;;;;;;;9.37;56.16;102098.50;5014688;28;20447;-82
2023/03/17 09:34:28;;;;;;;5.97;4.80;;;;;;;9.45;55.50;102085.47;5014087;28;20388;-82
2023/03/17 09:36:54;;;;;;;6.70;4.80;;;;;;;9.45;55.17;102090.75;5013251;28;20396;-79
2023/03/17 09:39:23;;;;;;;5.93;4.77;;;;;;;9.36;55.15;102105.63;5014547;28;20871;-80
2023/03/17 09:41:56;;;;;;;6.32;4.90;;;;;;;9.34;55.31;102091.66;5014048;28;20392;-81
2023/03/17 09:44:42;;;;;;;4.45;4.05;;;;;;;9.45;55.24;102096.03;5015335;28;20538;-81
2023/03/17 09:47:17;;;;;;;6.20;4.20;;;;;;;9.46;55.32;102092.44;5015011;28;20403;-80
2023/03/17 09:49:48;;;;;;;5.70;4.23;;;;;;;9.44;55.49;102082.97;5012712;28;20876;-81
2023/03/17 09:52:23;;;;;;;5.03;4.53;;;;;;;9.57;55.29;102092.38;5014763;28;20380;-84
2023/03/17 09:54:49;;;;;;;5.03;3.83;;;;;;;9.42;55.09;102091.03;5013687;28;20419;-81
2023/03/17 09:57:20;;;;;;;5.13;4.13;;;;;;;9.45;55.26;102096.03;5014025;28;20396;-80
2023/03/17 09:59:53;;;;;;;4.82;4.10;;;;;;;9.49;54.95;102089.53;5014692;28;20388;-81
2023/03/17 10:02:29;;;;;;;4.63;3.88;;;;;;;9.55;55.20;102094.31;5014672;28;20930;-81
2023/03/17 10:04:56;;;;;;;4.20;3.80;;;;;;;9.59;54.83;102092.25;5015218;28;20394;-85
2023/03/17 10:07:44;;;;;;;4.43;3.73;;;;;;;9.61;54.90;102089.47;5016501;28;20392;-83
2023/03/17 10:10:18;;;;;;;4.70;3.78;;;;;;;9.60;54.65;102093.94;5011626;28;20407;-81
2023/03/17 10:13:12;;;;;;;4.45;3.83;;;;;;;9.55;54.96;102088.19;5012662;28;20419;-81
2023/03/17 10:15:52;;;;;;;4.65;3.85;;;;;;;9.60;54.61;102090.44;5015347;28;20390;-82
2023/03/17 10:18:23;;;;;;;3.70;3.40;;;;;;;9.58;53.99;102087.94;5018392;28;20395;-83
2023/03/17 10:21:00;;;;;;;5.93;3.60;;;;;;;9.67;53.39;102086.28;5015118;28;20388;-83
2023/03/17 10:23:30;;;;;;;5.22;4.15;;;;;;;9.68;53.20;102085.34;5013067;28;20392;-80
2023/03/17 10:26:01;;;;;;;5.45;4.10;;;;;;;9.80;53.66;102086.94;5013467;28;20406;-82
2023/03/17 10:28:30;;;;;;;6.70;4.63;;;;;;;9.82;53.58;102079.69;5012796;28;20442;-81
2023/03/17 10:31:16;;;;;;;6.47;4.60;;;;;;;9.90;53.50;102077.25;5014557;28;20407;-82
2023/03/17 10:33:52;;;;;;;12.43;11.27;;;;;;;10.08;53.52;102073.97;5015389;28;20373;-80
2023/03/17 10:36:33;;;;;;;7.15;6.35;;;;;;;10.28;53.28;102081.03;5015040;28;20459;-81
2023/03/17 10:39:04;;;;;;;10.88;9.07;;;;;;;10.27;52.60;102074.03;5015315;28;20415;-80
2023/03/17 10:41:31;;;;;;;9.10;7.97;;;;;;;10.31;52.82;102074.63;5013638;28;20396;-80
2023/03/17 10:43:58;;;;;;;9.67;7.73;;;;;;;10.44;52.31;102069.09;5012217;28;20398;-80
2023/03/17 10:46:26;;;;;;;9.27;8.27;;;;;;;10.55;52.50;102068.97;5013736;28;20380;-80
2023/03/17 10:49:07;;;;;;;10.90;9.27;;;;;;;10.59;52.16;102072.19;5013758;28;20511;-81
2023/03/17 10:51:35;;;;;;;13.17;8.50;;;;;;;10.64;52.33;102062.88;5020409;28;20388;-82
2023/03/17 10:54:19;;;;;;;18.75;10.30;;;;;;;10.81;52.17;102063.16;5016071;28;20909;-82
2023/03/17 10:56:54;;;;;;;19.50;17.63;;;;;;;10.95;51.70;102061.91;5015022;28;20388;-82
2023/03/17 10:59:28;;;;;;;9.77;8.02;;;;;;;11.07;51.24;102056.34;5015355;28;20402;-82
2023/03/17 11:02:15;;;;;;;13.52;12.27;;;;;;;11.21;51.73;102051.56;5014225;28;20376;-81
2023/03/17 11:04:42;;;;;;;9.13;8.32;;;;;;;11.26;51.37;102049.34;5015045;28;20380;-82
2023/03/17 11:07:14;;;;;;;14.17;6.63;;;;;;;11.34;50.95;102046.78;5015017;28;20376;-81
2023/03/17 11:09:39;;;;;;;7.18;5.20;;;;;;;11.48;50.88;102051.66;5021577;28;20407;-81
2023/03/17 11:12:21;;;;;;;13.40;7.22;;;;;;;11.56;50.66;102040.34;5034926;28;20424;-80
2023/03/17 11:14:48;;;;;;;10.80;5.03;;;;;;;11.63;50.18;102032.63;5034573;28;20416;-82
2023/03/17 11:17:21;;;;;;;4.90;4.30;;;;;;;11.67;50.07;102040.16;5021036;28;20478;-81
2023/03/17 11:20:06;;;;;;;6.18;4.28;;;;;;;11.60;49.82;102035.56;5015616;28;20390;-81
2023/03/17 11:22:40;;;;;;;4.65;4.18;;;;;;;11.69;49.85;102033.88;5016252;28;20864;-82
2023/03/17 11:25:14;;;;;;;5.45;4.25;;;;;;;11.67;49.16;102032.19;5018617;28;20482;-83
2023/03/17 11:27:56;;;;;;;12.53;11.63;;;;;;;11.69;49.37;102018.78;5017906;28;20381;-82
2023/03/17 11:30:35;;;;;;;8.13;7.43;;;;;;;11.92;49.33;102029.91;5017145;28;20481;-80
2023/03/17 11:33:23;;;;;;;5.35;4.85;;;;;;;11.99;48.74;102014.19;5017889;28;20435;-83
2023/03/17 11:35:51;;;;;;;4.25;3.60;;;;;;;11.96;48.08;102007.38;5016181;28;20387;-82